createdAt,value
2022-12-11T00:00:15.759Z,50.75
2022-12-11T00:00:57.478Z,50.83
2022-12-11T00:01:39.177Z,49.53
2022-12-11T00:02:21.028Z,50.30
2022-12-11T00:03:04.832Z,48.53
2022-12-11T00:03:47.851Z,46.95
2022-12-11T00:04:29.501Z,50.13
2022-12-11T00:05:14.242Z,55.17
2022-12-11T00:05:55.878Z,52.55
2022-12-11T00:06:40.473Z,54.00
2022-12-11T00:07:25.218Z,50.50
2022-12-11T00:08:08.418Z,52.58
2022-12-11T00:08:54.795Z,48.42
2022-12-11T00:09:36.584Z,53.47
2022-12-11T00:10:18.268Z,55.83
2022-12-11T00:11:00.033Z,55.30
2022-12-11T00:11:41.709Z,49.55
2022-12-11T00:12:23.408Z,56.35
2022-12-11T00:13:05.553Z,52.67
2022-12-11T00:13:50.055Z,49.28
2022-12-11T00:14:31.920Z,47.35
2022-12-11T00:15:13.846Z,52.33
2022-12-11T00:15:57.944Z,51.95
2022-12-11T00:16:43.422Z,51.10
2022-12-11T00:17:25.208Z,52.28
2022-12-11T00:18:08.274Z,53.20
2022-12-11T00:18:50.094Z,56.78
2022-12-11T00:19:31.812Z,54.75
2022-12-11T00:20:19.326Z,54.08
2022-12-11T00:21:06.459Z,57.00
2022-12-11T00:21:48.124Z,55.50
2022-12-11T00:22:30.816Z,52.95
2022-12-11T00:23:12.575Z,55.20
2022-12-11T00:23:54.621Z,54.83
2022-12-11T00:24:36.284Z,53.38
2022-12-11T00:25:18.263Z,53.38
2022-12-11T00:25:59.970Z,56.83
2022-12-11T00:26:41.715Z,57.22
2022-12-11T00:27:24.079Z,57.78
2022-12-11T00:28:05.723Z,54.67
2022-12-11T00:28:47.384Z,50.97
2022-12-11T00:29:29.032Z,52.75
2022-12-11T00:30:11.245Z,57.17
2022-12-11T00:30:52.895Z,55.55
2022-12-11T00:31:37.831Z,53.25
2022-12-11T00:32:19.547Z,50.40
2022-12-11T00:33:01.184Z,53.72
2022-12-11T00:33:46.187Z,56.08
2022-12-11T00:34:27.873Z,57.83
2022-12-11T00:35:10.339Z,56.22
2022-12-11T00:35:52.264Z,52.72
2022-12-11T00:36:34.099Z,51.72
2022-12-11T00:37:18.067Z,53.08
2022-12-11T00:37:59.752Z,50.42
2022-12-11T00:38:41.501Z,55.90
2022-12-11T00:39:23.161Z,56.75
2022-12-11T00:40:07.846Z,54.55
2022-12-11T00:40:49.611Z,52.75
2022-12-11T00:41:32.430Z,52.47
2022-12-11T00:42:14.201Z,56.58
2022-12-11T00:42:55.916Z,53.70
2022-12-11T00:43:37.679Z,52.30
2022-12-11T00:44:22.374Z,54.42
2022-12-11T00:45:04.259Z,52.30
2022-12-11T00:45:48.000Z,50.75
2022-12-11T00:46:29.758Z,48.50
2022-12-11T00:47:14.221Z,55.80
2022-12-11T00:47:55.946Z,54.85
2022-12-11T00:48:38.385Z,51.72
2022-12-11T00:49:22.284Z,51.90
2022-12-11T00:50:06.903Z,53.72
2022-12-11T00:50:48.650Z,49.85
2022-12-11T00:51:30.313Z,50.83
2022-12-11T00:52:12.041Z,48.65
2022-12-11T00:52:58.548Z,46.28
2022-12-11T00:53:40.228Z,51.10
2022-12-11T00:54:21.886Z,50.45
2022-12-11T00:55:03.736Z,51.20
2022-12-11T00:55:45.436Z,49.00
2022-12-11T00:56:27.424Z,47.45
2022-12-11T00:57:09.180Z,50.85
2022-12-11T00:57:54.229Z,53.30
2022-12-11T00:58:35.999Z,48.00
2022-12-11T00:59:17.636Z,44.65
2022-12-11T00:59:59.289Z,48.20
2022-12-11T01:00:43.482Z,56.00
2022-12-11T01:01:25.912Z,47.88
2022-12-11T01:02:07.633Z,46.00
2022-12-11T01:02:50.340Z,49.75
2022-12-11T01:03:32.042Z,52.35
2022-12-11T01:04:13.706Z,50.70
2022-12-11T01:04:55.371Z,49.15
2022-12-11T01:05:37.054Z,51.67
2022-12-11T01:06:24.355Z,47.70
2022-12-11T01:07:06.008Z,47.78
2022-12-11T01:07:47.700Z,48.42
2022-12-11T01:08:32.701Z,47.78
2022-12-11T01:09:35.586Z,49.42
2022-12-11T01:10:26.515Z,47.58
2022-12-11T01:11:11.204Z,49.80
2022-12-11T01:11:52.850Z,47.88
2022-12-11T01:12:34.522Z,41.78
2022-12-11T01:13:16.363Z,42.75
2022-12-11T01:13:58.028Z,49.35
2022-12-11T01:14:39.686Z,48.13
2022-12-11T01:15:24.281Z,44.42
2022-12-11T01:16:11.602Z,48.60
2022-12-11T01:16:53.698Z,45.05
2022-12-11T01:17:35.336Z,47.08
2022-12-11T01:18:17.003Z,46.50
2022-12-11T01:18:59.141Z,47.15
2022-12-11T01:19:40.768Z,43.33
2022-12-11T01:20:27.262Z,47.17
2022-12-11T01:21:11.731Z,45.92
2022-12-11T01:21:55.969Z,42.80
2022-12-11T01:22:37.671Z,42.25
2022-12-11T01:23:19.508Z,41.53
2022-12-11T01:24:04.089Z,43.40
2022-12-11T01:24:48.460Z,47.95
2022-12-11T01:25:30.175Z,45.55
2022-12-11T01:26:15.410Z,46.67
2022-12-11T01:26:57.470Z,45.65
2022-12-11T01:27:40.083Z,42.88
2022-12-11T01:28:21.715Z,45.28
2022-12-11T01:29:03.724Z,44.88
2022-12-11T01:29:45.420Z,42.75
2022-12-11T01:30:27.167Z,41.97
2022-12-11T01:31:15.691Z,41.47
2022-12-11T01:31:57.367Z,42.05
2022-12-11T01:32:39.015Z,43.63
2022-12-11T01:33:20.676Z,42.90
2022-12-11T01:34:04.990Z,40.20
2022-12-11T01:34:46.608Z,38.50
2022-12-11T01:35:29.034Z,40.58
2022-12-11T01:36:16.896Z,43.20
2022-12-11T01:36:58.600Z,47.63
2022-12-11T01:37:40.660Z,43.45
2022-12-11T01:38:22.307Z,46.30
2022-12-11T01:39:04.009Z,55.45
2022-12-11T01:39:48.502Z,46.92
2022-12-11T01:40:30.266Z,46.90
2022-12-11T01:41:11.983Z,49.15
2022-12-11T01:41:58.245Z,45.65
2022-12-11T01:42:39.976Z,42.92
2022-12-11T01:43:21.685Z,46.88
2022-12-11T01:44:28.834Z,51.22
2022-12-11T01:45:31.886Z,49.50
2022-12-11T01:46:13.571Z,49.78
2022-12-11T01:46:58.382Z,50.03
2022-12-11T01:47:40.276Z,46.45
2022-12-11T01:48:27.300Z,42.72
2022-12-11T01:49:15.202Z,46.28
2022-12-11T01:49:56.887Z,45.65
2022-12-11T01:50:49.236Z,43.83
2022-12-11T01:51:35.989Z,48.60
2022-12-11T01:52:22.533Z,46.15
2022-12-11T01:53:08.166Z,42.55
2022-12-11T01:54:08.278Z,48.78
2022-12-11T01:54:51.373Z,45.92
2022-12-11T01:55:33.828Z,43.58
2022-12-11T01:56:15.989Z,43.35
2022-12-11T01:57:03.251Z,40.00
2022-12-11T01:57:48.928Z,45.42
2022-12-11T01:58:33.917Z,44.20
2022-12-11T01:59:19.057Z,41.35
2022-12-11T02:00:00.722Z,41.83
2022-12-11T02:00:42.399Z,44.88
2022-12-11T02:01:35.674Z,48.83
2022-12-11T02:02:28.439Z,44.92
2022-12-11T02:03:11.597Z,46.65
2022-12-11T02:03:54.765Z,49.47
2022-12-11T02:04:39.142Z,47.35
2022-12-11T02:05:23.346Z,45.28
2022-12-11T02:06:07.126Z,43.58
2022-12-11T02:06:51.821Z,45.13
2022-12-11T02:07:43.196Z,44.60
2022-12-11T02:08:24.946Z,44.55
2022-12-11T02:09:37.043Z,45.60
2022-12-11T02:10:18.950Z,46.78
2022-12-11T02:11:15.928Z,43.83
2022-12-11T02:12:28.088Z,40.85
2022-12-11T02:13:37.329Z,46.15
2022-12-11T02:14:37.393Z,41.15
2022-12-11T02:15:46.300Z,45.10
2022-12-11T02:16:50.278Z,42.50
2022-12-11T02:17:42.020Z,42.65
2022-12-11T02:18:29.391Z,38.35
2022-12-11T02:19:36.894Z,45.65
2022-12-11T02:20:38.036Z,40.20
2022-12-11T02:21:38.338Z,39.92
2022-12-11T02:23:04.447Z,44.67
2022-12-11T02:24:00.723Z,44.25
2022-12-11T02:25:16.252Z,43.70
2022-12-11T02:26:31.957Z,42.40
2022-12-11T02:27:19.655Z,44.95
2022-12-11T02:28:19.339Z,42.92
2022-12-11T02:29:12.969Z,44.00
2022-12-11T02:30:08.937Z,37.75
2022-12-11T02:31:03.410Z,40.58
2022-12-11T02:31:50.223Z,40.42
2022-12-11T02:32:34.730Z,45.08
2022-12-11T02:33:18.965Z,42.90
2022-12-11T02:34:04.971Z,42.30
2022-12-11T02:35:03.655Z,44.15
2022-12-11T02:35:47.098Z,42.47
2022-12-11T02:36:34.857Z,44.45
2022-12-11T02:37:21.425Z,40.78
2022-12-11T02:38:07.857Z,38.92
2022-12-11T02:38:52.815Z,42.17
2022-12-11T02:39:38.081Z,38.83
2022-12-11T02:40:23.119Z,44.10
2022-12-11T02:41:06.687Z,38.78
2022-12-11T02:41:51.511Z,39.78
2022-12-11T02:42:34.271Z,38.67
2022-12-11T02:43:17.989Z,37.25
2022-12-11T02:44:02.587Z,36.63
2022-12-11T02:44:48.667Z,37.85
2022-12-11T02:45:31.139Z,37.10
2022-12-11T02:46:14.133Z,35.67
2022-12-11T02:46:56.227Z,34.33
2022-12-11T02:47:39.083Z,35.83
2022-12-11T02:48:24.221Z,37.70
2022-12-11T02:49:08.309Z,36.67
2022-12-11T02:49:51.935Z,36.95
2022-12-11T02:50:40.586Z,37.97
2022-12-11T02:51:33.340Z,34.33
2022-12-11T02:52:18.797Z,35.83
2022-12-11T02:53:02.643Z,38.33
2022-12-11T02:53:45.841Z,38.53
2022-12-11T02:54:31.949Z,37.65
2022-12-11T02:55:15.908Z,39.20
2022-12-11T02:56:06.876Z,40.85
2022-12-11T02:56:53.640Z,40.08
2022-12-11T02:57:59.871Z,38.90
2022-12-11T02:58:52.629Z,39.28
2022-12-11T02:59:40.708Z,37.70
2022-12-11T03:00:22.386Z,37.85
2022-12-11T03:01:07.930Z,41.23
2022-12-11T03:01:50.512Z,38.90
2022-12-11T03:02:32.415Z,37.17
2022-12-11T03:03:14.764Z,35.78
2022-12-11T03:03:57.820Z,35.45
2022-12-11T03:04:43.608Z,37.38
2022-12-11T03:05:27.167Z,38.22
2022-12-11T03:06:13.916Z,35.50
2022-12-11T03:07:01.466Z,36.88
2022-12-11T03:07:47.772Z,42.33
2022-12-11T03:08:29.738Z,38.22
2022-12-11T03:09:11.420Z,35.22
2022-12-11T03:09:57.066Z,36.55
2022-12-11T03:10:38.728Z,37.03
2022-12-11T03:11:20.361Z,37.83
2022-12-11T03:12:02.704Z,35.45
2022-12-11T03:12:53.016Z,32.45
2022-12-11T03:13:35.027Z,31.75
2022-12-11T03:14:16.735Z,37.38
2022-12-11T03:15:00.946Z,35.10
2022-12-11T03:16:09.812Z,36.10
2022-12-11T03:17:02.036Z,36.92
2022-12-11T03:17:46.716Z,38.10
2022-12-11T03:18:41.081Z,39.50
2022-12-11T03:19:23.096Z,31.77
2022-12-11T03:20:19.996Z,32.38
2022-12-11T03:21:10.291Z,35.45
2022-12-11T03:22:08.313Z,36.92
2022-12-11T03:23:03.009Z,35.95
2022-12-11T03:24:03.432Z,34.00
2022-12-11T03:24:52.963Z,34.50
2022-12-11T03:25:53.311Z,32.92
2022-12-11T03:26:41.048Z,36.90
2022-12-11T03:27:35.359Z,35.05
2022-12-11T03:28:21.262Z,35.00
2022-12-11T03:29:11.829Z,33.75
2022-12-11T03:30:05.696Z,35.90
2022-12-11T03:30:49.763Z,34.35
2022-12-11T03:31:50.929Z,34.83
2022-12-11T03:32:44.571Z,31.33
2022-12-11T03:33:32.132Z,30.92
2022-12-11T03:34:24.558Z,32.17
2022-12-11T03:35:14.766Z,32.60
2022-12-11T03:36:03.036Z,33.78
2022-12-11T03:36:47.399Z,30.77
2022-12-11T03:37:34.521Z,33.10
2022-12-11T03:38:24.713Z,29.98
2022-12-11T03:39:14.051Z,33.65
2022-12-11T03:40:03.119Z,33.17
2022-12-11T03:40:48.881Z,27.63
2022-12-11T03:41:32.970Z,30.45
2022-12-11T03:42:16.961Z,32.05
2022-12-11T03:42:59.647Z,32.08
2022-12-11T03:43:41.821Z,30.90
2022-12-11T03:44:27.337Z,30.90
2022-12-11T03:45:10.184Z,32.25
2022-12-11T03:45:55.462Z,34.40
2022-12-11T03:46:43.459Z,33.47
2022-12-11T03:47:27.515Z,35.53
2022-12-11T03:48:11.357Z,33.25
2022-12-11T03:48:55.426Z,36.90
2022-12-11T03:49:41.373Z,30.05
2022-12-11T03:50:29.765Z,30.00
2022-12-11T03:51:11.506Z,30.40
2022-12-11T03:51:56.379Z,30.88
2022-12-11T03:52:45.852Z,30.23
2022-12-11T03:53:28.318Z,28.38
2022-12-11T03:54:11.337Z,31.50
2022-12-11T03:54:54.660Z,31.93
2022-12-11T03:55:39.523Z,29.20
2022-12-11T03:56:24.780Z,32.40
2022-12-11T03:57:13.889Z,31.33
2022-12-11T03:57:55.693Z,31.90
2022-12-11T03:58:37.613Z,30.50
2022-12-11T03:59:19.338Z,29.88
2022-12-11T04:00:03.279Z,32.08
2022-12-11T04:00:44.953Z,30.02
2022-12-11T04:01:27.169Z,29.70
2022-12-11T04:02:15.618Z,30.70
2022-12-11T04:03:17.723Z,30.17
2022-12-11T04:03:59.397Z,28.23
2022-12-11T04:04:42.303Z,28.00
2022-12-11T04:05:23.939Z,27.85
2022-12-11T04:06:05.891Z,26.45
2022-12-11T04:06:47.702Z,28.25
2022-12-11T04:07:31.174Z,28.23
2022-12-11T04:08:13.743Z,30.98
2022-12-11T04:08:55.455Z,27.13
2022-12-11T04:09:37.581Z,27.63
2022-12-11T04:10:19.236Z,30.83
2022-12-11T04:11:22.664Z,26.80
2022-12-11T04:12:04.446Z,29.25
2022-12-11T04:12:46.494Z,30.33
2022-12-11T04:13:28.136Z,29.73
2022-12-11T04:14:31.532Z,26.55
2022-12-11T04:15:13.398Z,26.45
2022-12-11T04:15:55.292Z,25.08
2022-12-11T04:16:37.040Z,25.00
2022-12-11T04:17:42.294Z,24.75
2022-12-11T04:18:43.818Z,23.80
2022-12-11T04:19:46.309Z,26.60
2022-12-11T04:20:46.945Z,24.27
2022-12-11T04:21:47.224Z,25.70
2022-12-11T04:22:50.916Z,23.92
2022-12-11T04:23:51.888Z,24.75
2022-12-11T04:24:33.903Z,22.23
2022-12-11T04:25:15.961Z,25.95
2022-12-11T04:26:17.404Z,26.02
2022-12-11T04:26:59.535Z,22.70
2022-12-11T04:27:50.114Z,24.15
2022-12-11T04:28:34.473Z,23.98
2022-12-11T04:29:16.115Z,24.92
2022-12-11T04:29:57.740Z,25.98
2022-12-11T04:30:39.380Z,24.10
2022-12-11T04:31:22.646Z,23.98
2022-12-11T04:32:04.855Z,25.05
2022-12-11T04:32:46.526Z,23.23
2022-12-11T04:33:28.464Z,26.00
2022-12-11T04:34:10.156Z,24.58
2022-12-11T04:34:51.828Z,23.95
2022-12-11T04:35:33.508Z,22.52
2022-12-11T04:36:15.388Z,24.65
2022-12-11T04:36:57.444Z,22.73
2022-12-11T04:37:40.151Z,23.05
2022-12-11T04:38:21.810Z,23.08
2022-12-11T04:39:05.901Z,23.92
2022-12-11T04:39:47.715Z,23.73
2022-12-11T04:40:29.390Z,22.95
2022-12-11T04:41:13.944Z,23.08
2022-12-11T04:41:55.618Z,25.80
2022-12-11T04:42:37.616Z,26.27
2022-12-11T04:43:19.249Z,23.75
2022-12-11T04:44:01.047Z,22.48
2022-12-11T04:44:42.820Z,23.80
2022-12-11T04:45:28.505Z,25.67
2022-12-11T04:46:13.962Z,25.50
2022-12-11T04:46:55.636Z,23.70
2022-12-11T04:47:39.245Z,23.63
2022-12-11T04:48:23.283Z,24.27
2022-12-11T04:49:05.007Z,24.27
2022-12-11T04:49:46.772Z,22.00
2022-12-11T04:50:28.420Z,28.27
2022-12-11T04:51:10.412Z,28.40
2022-12-11T04:51:52.475Z,24.92
2022-12-11T04:52:34.571Z,22.90
2022-12-11T04:53:16.232Z,24.95
2022-12-11T04:53:59.105Z,26.80
2022-12-11T04:54:42.373Z,24.80
2022-12-11T04:55:24.480Z,22.75
2022-12-11T04:56:11.571Z,24.10
2022-12-11T04:56:53.223Z,24.20
2022-12-11T04:57:35.251Z,23.75
2022-12-11T04:58:16.924Z,22.92
2022-12-11T04:58:58.586Z,22.48
2022-12-11T04:59:40.355Z,23.98
2022-12-11T05:00:22.653Z,22.55
2022-12-11T05:01:09.106Z,23.30
2022-12-11T05:01:50.913Z,22.73
2022-12-11T05:02:37.335Z,26.08
2022-12-11T05:03:19.864Z,25.08
2022-12-11T05:04:01.520Z,23.67
2022-12-11T05:04:43.473Z,25.70
2022-12-11T05:05:25.536Z,25.50
2022-12-11T05:06:07.835Z,22.88
2022-12-11T05:06:51.831Z,23.70
2022-12-11T05:07:33.895Z,24.67
2022-12-11T05:08:15.626Z,21.10
2022-12-11T05:08:57.290Z,23.67
2022-12-11T05:09:39.353Z,24.45
2022-12-11T05:10:21.005Z,24.80
2022-12-11T05:11:10.086Z,25.98
2022-12-11T05:11:55.015Z,25.90
2022-12-11T05:12:41.164Z,24.60
2022-12-11T05:13:22.901Z,24.23
2022-12-11T05:14:05.221Z,24.27
2022-12-11T05:14:46.958Z,26.33
2022-12-11T05:15:28.593Z,23.45
2022-12-11T05:16:14.209Z,26.58
2022-12-11T05:16:55.877Z,24.83
2022-12-11T05:17:37.536Z,25.45
2022-12-11T05:18:22.149Z,24.50
2022-12-11T05:19:06.867Z,24.73
2022-12-11T05:19:51.224Z,24.17
2022-12-11T05:20:33.018Z,23.65
2022-12-11T05:21:15.720Z,24.08
2022-12-11T05:21:57.393Z,25.67
2022-12-11T05:22:39.501Z,26.25
2022-12-11T05:23:26.590Z,25.02
2022-12-11T05:24:08.633Z,28.95
2022-12-11T05:24:50.283Z,27.83
2022-12-11T05:25:31.919Z,27.67
2022-12-11T05:26:17.497Z,26.52
2022-12-11T05:27:01.813Z,26.05
2022-12-11T05:27:43.557Z,25.00
2022-12-11T05:28:27.112Z,25.40
2022-12-11T05:29:08.794Z,24.48
2022-12-11T05:29:53.616Z,24.42
2022-12-11T05:30:37.868Z,24.95
2022-12-11T05:31:21.671Z,24.25
2022-12-11T05:32:03.875Z,25.48
2022-12-11T05:32:45.516Z,23.88
2022-12-11T05:33:34.175Z,25.50
2022-12-11T05:34:15.915Z,26.23
2022-12-11T05:34:57.811Z,27.45
2022-12-11T05:35:39.537Z,29.50
2022-12-11T05:36:24.904Z,27.70
2022-12-11T05:37:07.139Z,25.58
2022-12-11T05:37:48.836Z,25.50
2022-12-11T05:38:30.856Z,26.02
2022-12-11T05:39:12.642Z,25.40
2022-12-11T05:39:57.062Z,27.77
2022-12-11T05:40:38.737Z,24.33
2022-12-11T05:41:27.370Z,25.05
2022-12-11T05:42:09.012Z,27.17
2022-12-11T05:42:51.735Z,27.35
2022-12-11T05:43:37.535Z,28.00
2022-12-11T05:44:19.638Z,28.77
2022-12-11T05:45:04.246Z,27.27
2022-12-11T05:45:45.897Z,23.52
2022-12-11T05:46:29.821Z,27.30
2022-12-11T05:47:11.495Z,26.55
2022-12-11T05:47:53.127Z,25.80
2022-12-11T05:48:35.103Z,25.73
2022-12-11T05:49:19.857Z,25.73
2022-12-11T05:50:01.843Z,26.23
2022-12-11T05:50:43.491Z,27.58
2022-12-11T05:51:26.294Z,27.73
2022-12-11T05:52:07.928Z,26.42
2022-12-11T05:52:49.591Z,27.38
2022-12-11T05:53:31.497Z,29.90
2022-12-11T05:54:13.345Z,24.60
2022-12-11T05:54:54.980Z,22.73
2022-12-11T05:55:37.039Z,26.70
2022-12-11T05:56:21.327Z,26.15
2022-12-11T05:57:02.968Z,25.90
2022-12-11T05:57:44.650Z,27.20
2022-12-11T05:58:26.429Z,27.08
2022-12-11T05:59:11.070Z,28.75
2022-12-11T05:59:53.132Z,27.58
2022-12-11T06:00:36.257Z,28.23
2022-12-11T06:01:31.203Z,26.08
2022-12-11T06:02:16.389Z,23.83
2022-12-11T06:02:58.598Z,25.88
2022-12-11T06:03:40.400Z,24.52
2022-12-11T06:04:22.100Z,23.90
2022-12-11T06:05:03.922Z,27.55
2022-12-11T06:05:45.651Z,29.60
2022-12-11T06:06:28.441Z,26.48
2022-12-11T06:07:10.065Z,26.70
2022-12-11T06:07:51.758Z,25.95
2022-12-11T06:08:34.164Z,24.70
2022-12-11T06:09:16.666Z,27.60
2022-12-11T06:09:58.332Z,26.13
2022-12-11T06:10:46.836Z,27.55
2022-12-11T06:11:30.548Z,26.13
2022-12-11T06:12:12.361Z,25.85
2022-12-11T06:12:53.992Z,25.60
2022-12-11T06:13:38.608Z,28.00
2022-12-11T06:14:20.235Z,27.90
2022-12-11T06:15:01.965Z,27.30
2022-12-11T06:15:43.892Z,29.05
2022-12-11T06:16:25.972Z,26.80
2022-12-11T06:17:07.819Z,25.27
2022-12-11T06:17:49.590Z,28.45
2022-12-11T06:18:31.546Z,30.15
2022-12-11T06:19:18.326Z,27.02
2022-12-11T06:19:59.966Z,24.63
2022-12-11T06:20:41.660Z,28.30
2022-12-11T06:21:24.668Z,29.35
2022-12-11T06:22:06.309Z,27.60
2022-12-11T06:22:48.037Z,28.10
2022-12-11T06:23:29.690Z,29.05
2022-12-11T06:24:14.946Z,30.73
2022-12-11T06:24:56.587Z,30.77
2022-12-11T06:25:41.172Z,30.77
2022-12-11T06:26:23.642Z,29.85
2022-12-11T06:27:05.327Z,28.65
2022-12-11T06:27:47.021Z,30.17
2022-12-11T06:28:28.703Z,29.70
2022-12-11T06:29:12.981Z,31.85
2022-12-11T06:29:54.965Z,28.30
2022-12-11T06:30:37.413Z,25.17
2022-12-11T06:31:22.610Z,30.95
2022-12-11T06:32:04.484Z,29.08
2022-12-11T06:32:46.996Z,27.85
2022-12-11T06:33:29.216Z,28.85
2022-12-11T06:34:15.926Z,33.13
2022-12-11T06:34:57.564Z,31.25
2022-12-11T06:35:42.298Z,29.13
2022-12-11T06:36:24.649Z,28.00
2022-12-11T06:37:07.205Z,27.65
2022-12-11T06:37:52.429Z,25.77
2022-12-11T06:38:34.114Z,26.23
2022-12-11T06:39:15.764Z,26.40
2022-12-11T06:39:57.420Z,28.13
2022-12-11T06:40:41.265Z,30.90
2022-12-11T06:41:23.028Z,28.92
2022-12-11T06:42:07.626Z,28.48
2022-12-11T06:42:49.280Z,27.05
2022-12-11T06:43:32.345Z,28.58
2022-12-11T06:44:14.022Z,29.08
2022-12-11T06:44:59.953Z,31.95
2022-12-11T06:45:41.630Z,28.58
2022-12-11T06:46:23.424Z,27.88
2022-12-11T06:47:05.350Z,27.88
2022-12-11T06:47:49.794Z,28.88
2022-12-11T06:48:32.076Z,27.75
2022-12-11T06:49:13.727Z,28.73
2022-12-11T06:49:56.191Z,31.02
2022-12-11T06:50:38.537Z,28.50
2022-12-11T06:51:22.255Z,26.88
2022-12-11T06:52:06.063Z,30.48
2022-12-11T06:52:47.685Z,29.02
2022-12-11T06:53:29.398Z,27.05
2022-12-11T06:54:11.031Z,28.42
2022-12-11T06:54:55.471Z,29.55
2022-12-11T06:55:37.325Z,29.58
2022-12-11T06:56:22.660Z,29.42
2022-12-11T06:57:07.172Z,28.88
2022-12-11T06:57:51.421Z,27.80
2022-12-11T06:58:36.616Z,28.38
2022-12-11T06:59:18.931Z,30.20
2022-12-11T07:00:00.695Z,30.02
2022-12-11T07:00:46.593Z,31.42
2022-12-11T07:01:28.803Z,27.05
2022-12-11T07:02:14.263Z,26.92
2022-12-11T07:02:56.064Z,30.02
2022-12-11T07:03:37.701Z,30.17
2022-12-11T07:04:24.801Z,29.83
2022-12-11T07:05:06.980Z,34.70
2022-12-11T07:05:48.604Z,30.42
2022-12-11T07:06:30.392Z,27.52
2022-12-11T07:07:12.763Z,30.95
2022-12-11T07:07:54.948Z,31.63
2022-12-11T07:08:36.783Z,29.67
2022-12-11T07:09:18.448Z,26.52
2022-12-11T07:10:07.371Z,29.13
2022-12-11T07:10:55.432Z,28.52
2022-12-11T07:11:37.115Z,32.53
2022-12-11T07:12:19.196Z,32.17
2022-12-11T07:13:00.852Z,29.10
2022-12-11T07:13:42.636Z,30.08
2022-12-11T07:14:24.700Z,29.00
2022-12-11T07:15:10.217Z,29.75
2022-12-11T07:15:52.050Z,29.02
2022-12-11T07:16:33.775Z,28.40
2022-12-11T07:17:15.840Z,29.85
2022-12-11T07:17:57.469Z,31.02
2022-12-11T07:18:46.674Z,29.02
2022-12-11T07:19:28.341Z,29.98
2022-12-11T07:20:10.777Z,28.52
2022-12-11T07:20:52.650Z,30.95
2022-12-11T07:21:37.155Z,27.48
2022-12-11T07:22:21.471Z,27.87
2022-12-11T07:23:03.462Z,27.00
2022-12-11T07:23:45.308Z,27.08
2022-12-11T07:24:27.067Z,27.58
2022-12-11T07:25:14.016Z,25.90
2022-12-11T07:25:56.253Z,24.92
2022-12-11T07:26:38.289Z,27.45
2022-12-11T07:27:19.985Z,29.60
2022-12-11T07:28:01.658Z,26.35
2022-12-11T07:28:43.880Z,24.15
2022-12-11T07:29:25.572Z,24.75
2022-12-11T07:30:08.231Z,25.65
2022-12-11T07:30:50.280Z,23.98
2022-12-11T07:31:32.375Z,27.17
2022-12-11T07:32:14.504Z,25.60
2022-12-11T07:32:56.257Z,25.90
2022-12-11T07:33:38.008Z,25.88
2022-12-11T07:34:19.683Z,25.20
2022-12-11T07:35:09.349Z,26.35
2022-12-11T07:35:51.272Z,26.50
2022-12-11T07:36:33.984Z,26.63
2022-12-11T07:37:15.635Z,23.63
2022-12-11T07:37:58.168Z,23.08
2022-12-11T07:38:40.672Z,23.25
2022-12-11T07:39:22.426Z,22.73
2022-12-11T07:40:04.442Z,23.00
2022-12-11T07:40:48.249Z,27.42
2022-12-11T07:41:31.609Z,27.90
2022-12-11T07:42:13.248Z,26.98
2022-12-11T07:42:54.918Z,24.77
2022-12-11T07:43:37.057Z,23.15
2022-12-11T07:44:18.808Z,24.52
2022-12-11T07:45:00.855Z,23.35
2022-12-11T07:45:42.772Z,23.25
2022-12-11T07:46:26.688Z,24.42
2022-12-11T07:47:08.330Z,24.40
2022-12-11T07:47:49.976Z,24.27
2022-12-11T07:48:32.049Z,25.38
2022-12-11T07:49:13.730Z,28.08
2022-12-11T07:49:55.501Z,25.05
2022-12-11T07:50:39.889Z,28.95
2022-12-11T07:51:27.989Z,29.63
2022-12-11T07:52:10.079Z,27.33
2022-12-11T07:52:52.348Z,30.83
2022-12-11T07:53:34.021Z,30.73
2022-12-11T07:54:16.960Z,27.30
2022-12-11T07:54:58.695Z,26.67
2022-12-11T07:55:40.421Z,28.27
2022-12-11T07:56:22.583Z,28.65
2022-12-11T07:57:04.885Z,30.17
2022-12-11T07:57:47.930Z,32.30
2022-12-11T07:58:29.572Z,30.83
2022-12-11T07:59:11.604Z,27.58
2022-12-11T07:59:53.678Z,28.15
2022-12-11T08:00:38.304Z,31.33
2022-12-11T08:01:30.786Z,31.10
2022-12-11T08:02:12.512Z,27.80
2022-12-11T08:02:54.260Z,30.10
2022-12-11T08:03:35.999Z,26.42
2022-12-11T08:04:17.685Z,26.17
2022-12-11T08:04:59.392Z,26.75
2022-12-11T08:05:46.485Z,28.48
2022-12-11T08:06:30.961Z,27.98
2022-12-11T08:07:14.685Z,28.92
2022-12-11T08:07:56.384Z,27.20
2022-12-11T08:08:38.496Z,25.90
2022-12-11T08:09:22.635Z,29.60
2022-12-11T08:10:04.833Z,26.63
2022-12-11T08:10:46.539Z,28.00
2022-12-11T08:11:29.163Z,28.48
2022-12-11T08:12:13.608Z,26.30
2022-12-11T08:12:55.276Z,34.10
2022-12-11T08:13:37.518Z,29.58
2022-12-11T08:14:20.376Z,26.10
2022-12-11T08:15:02.082Z,27.55
2022-12-11T08:15:43.762Z,28.63
2022-12-11T08:16:26.719Z,26.83
2022-12-11T08:17:08.463Z,33.28
2022-12-11T08:17:50.111Z,29.00
2022-12-11T08:18:33.328Z,24.92
2022-12-11T08:19:15.714Z,27.80
2022-12-11T08:19:57.367Z,31.85
2022-12-11T08:20:42.522Z,30.08
2022-12-11T08:21:25.948Z,26.52
2022-12-11T08:22:07.580Z,25.65
2022-12-11T08:22:49.260Z,29.17
2022-12-11T08:23:30.884Z,25.63
2022-12-11T08:24:12.621Z,30.00
2022-12-11T08:24:54.261Z,28.92
2022-12-11T08:25:44.762Z,29.90
2022-12-11T08:26:29.877Z,30.63
2022-12-11T08:27:11.933Z,28.50
2022-12-11T08:27:56.504Z,30.98
2022-12-11T08:28:38.387Z,29.67
2022-12-11T08:29:20.512Z,29.55
2022-12-11T08:30:02.257Z,29.35
2022-12-11T08:30:43.948Z,27.27
2022-12-11T08:31:29.670Z,29.05
2022-12-11T08:32:13.590Z,29.10
2022-12-11T08:32:58.396Z,30.40
2022-12-11T08:33:41.735Z,28.63
2022-12-11T08:34:23.558Z,31.63
2022-12-11T08:35:08.860Z,28.02
2022-12-11T08:35:51.116Z,29.80
2022-12-11T08:36:32.845Z,28.90
2022-12-11T08:37:16.738Z,27.95
2022-12-11T08:37:58.707Z,31.58
2022-12-11T08:38:40.775Z,27.83
2022-12-11T08:39:22.860Z,27.52
2022-12-11T08:40:05.042Z,30.08
2022-12-11T08:40:46.686Z,32.72
2022-12-11T08:41:31.308Z,28.27
2022-12-11T08:42:15.639Z,29.88
2022-12-11T08:42:57.264Z,28.52
2022-12-11T08:43:39.730Z,26.42
2022-12-11T08:44:24.280Z,28.08
2022-12-11T08:45:09.666Z,29.60
2022-12-11T08:45:51.745Z,27.35
2022-12-11T08:46:33.648Z,28.00
2022-12-11T08:47:15.735Z,29.08
2022-12-11T08:47:59.063Z,29.15
2022-12-11T08:48:44.859Z,30.08
2022-12-11T08:49:28.657Z,30.80
2022-12-11T08:50:14.451Z,34.83
2022-12-11T08:51:01.216Z,30.08
2022-12-11T08:51:44.887Z,26.92
2022-12-11T08:52:26.722Z,26.55
2022-12-11T08:53:08.887Z,29.80
2022-12-11T08:53:51.312Z,30.42
2022-12-11T08:54:33.019Z,29.10
2022-12-11T08:55:14.734Z,26.33
2022-12-11T08:56:07.539Z,27.65
2022-12-11T08:56:52.345Z,28.90
2022-12-11T08:57:39.744Z,35.55
2022-12-11T08:58:21.403Z,35.55
2022-12-11T08:59:04.105Z,29.73
2022-12-11T08:59:46.259Z,30.05
2022-12-11T09:00:27.922Z,28.88
2022-12-11T09:01:12.139Z,30.25
2022-12-11T09:01:55.436Z,29.63
2022-12-11T09:02:37.151Z,30.60
2022-12-11T09:03:18.888Z,31.60
2022-12-11T09:04:00.614Z,28.35
2022-12-11T09:04:42.492Z,28.50
2022-12-11T09:05:24.147Z,32.28
2022-12-11T09:06:12.460Z,30.83
2022-12-11T09:06:57.053Z,28.02
2022-12-11T09:07:39.332Z,29.55
2022-12-11T09:08:21.190Z,30.40
2022-12-11T09:09:03.532Z,27.60
2022-12-11T09:09:47.719Z,31.40
2022-12-11T09:10:29.424Z,32.20
2022-12-11T09:11:14.111Z,31.25
2022-12-11T09:11:56.522Z,28.98
2022-12-11T09:12:40.869Z,29.88
2022-12-11T09:13:22.503Z,34.40
2022-12-11T09:14:07.620Z,31.40
2022-12-11T09:14:49.891Z,31.52
2022-12-11T09:15:38.165Z,29.98
2022-12-11T09:16:22.621Z,31.10
2022-12-11T09:17:06.646Z,31.08
2022-12-11T09:17:48.741Z,31.65
2022-12-11T09:18:30.372Z,32.70
2022-12-11T09:19:14.346Z,28.70
2022-12-11T09:19:56.509Z,30.27
2022-12-11T09:20:38.283Z,31.13
2022-12-11T09:21:22.433Z,31.23
2022-12-11T09:22:04.092Z,31.88
2022-12-11T09:22:46.154Z,32.78
2022-12-11T09:23:28.129Z,32.70
2022-12-11T09:24:12.197Z,34.40
2022-12-11T09:24:54.266Z,32.22
2022-12-11T09:25:40.351Z,33.72
2022-12-11T09:26:25.466Z,35.83
2022-12-11T09:27:07.139Z,29.80
2022-12-11T09:27:48.825Z,28.75
2022-12-11T09:28:31.680Z,34.35
2022-12-11T09:29:13.807Z,32.58
2022-12-11T09:29:55.859Z,32.58
2022-12-11T09:30:43.563Z,34.67
2022-12-11T09:31:25.680Z,35.80
2022-12-11T09:32:08.026Z,34.92
2022-12-11T09:32:49.704Z,36.40